createdAt,value
2019-02-25T00:00:56.430Z,3.77
2019-02-25T00:03:44.281Z,3.52
2019-02-25T00:06:32.114Z,3.63
2019-02-25T00:09:19.972Z,3.56
2019-02-25T00:12:07.787Z,3.53
2019-02-25T00:14:56.119Z,3.38
2019-02-25T00:17:43.912Z,3.40
2019-02-25T00:20:31.770Z,3.37
2019-02-25T00:23:19.667Z,3.28
2019-02-25T00:26:07.670Z,3.20
2019-02-25T00:28:55.602Z,3.29
2019-02-25T00:31:43.783Z,3.38
2019-02-25T00:34:31.788Z,3.50
2019-02-25T00:37:19.694Z,3.18
2019-02-25T00:40:07.772Z,3.15
2019-02-25T00:42:55.554Z,3.35
2019-02-25T00:45:43.530Z,3.05
2019-02-25T00:48:31.205Z,3.02
2019-02-25T00:51:19.392Z,3.26
2019-02-25T00:54:07.046Z,3.09
2019-02-25T00:56:55.459Z,3.07
2019-02-25T00:59:43.568Z,3.22
2019-02-25T01:02:31.723Z,2.95
2019-02-25T01:05:20.082Z,2.91
2019-02-25T01:08:08.057Z,2.89
2019-02-25T01:10:56.387Z,3.15
2019-02-25T01:13:44.536Z,3.13
2019-02-25T01:16:32.542Z,2.96
2019-02-25T01:19:20.492Z,3.07
2019-02-25T01:22:08.436Z,3.03
2019-02-25T01:24:56.456Z,2.86
2019-02-25T01:27:44.301Z,2.78
2019-02-25T01:30:32.519Z,2.89
2019-02-25T01:33:20.415Z,2.89
2019-02-25T01:36:08.456Z,2.94
2019-02-25T01:38:56.696Z,2.93
2019-02-25T01:41:44.782Z,2.87
2019-02-25T01:44:32.877Z,2.77
2019-02-25T01:47:21.344Z,2.85
2019-02-25T01:50:47.282Z,2.88
2019-02-25T01:53:38.448Z,2.73
2019-02-25T01:56:26.790Z,2.68
2019-02-25T01:59:14.655Z,2.80
2019-02-25T02:02:02.684Z,2.75
2019-02-25T02:04:50.502Z,2.55
2019-02-25T02:07:38.387Z,2.63
2019-02-25T02:10:26.165Z,2.58
2019-02-25T02:13:14.654Z,2.40
2019-02-25T02:16:02.614Z,2.51
2019-02-25T02:18:50.668Z,2.61
2019-02-25T02:21:38.374Z,2.74
2019-02-25T02:24:26.218Z,2.72
2019-02-25T02:27:14.478Z,2.58
2019-02-25T02:30:02.232Z,2.41
2019-02-25T02:32:50.095Z,2.23
2019-02-25T02:35:37.732Z,2.22
2019-02-25T02:38:25.966Z,2.37
2019-02-25T02:41:13.939Z,2.40
2019-02-25T02:44:02.039Z,2.34
2019-02-25T02:47:14.095Z,2.58
2019-02-25T02:50:02.047Z,2.62
2019-02-25T02:52:49.909Z,2.51
2019-02-25T02:55:38.206Z,2.50
2019-02-25T02:58:26.208Z,2.21
2019-02-25T03:01:14.486Z,2.07
2019-02-25T03:04:02.582Z,2.26
2019-02-25T03:06:50.481Z,2.07
2019-02-25T03:09:39.014Z,2.30
2019-02-25T03:12:26.563Z,1.98
2019-02-25T03:15:16.355Z,2.06
2019-02-25T03:18:04.140Z,1.91
2019-02-25T03:20:52.179Z,2.20
2019-02-25T03:23:39.857Z,2.12
2019-02-25T03:26:27.968Z,2.07
2019-02-25T03:29:16.182Z,1.97
2019-02-25T03:32:04.261Z,2.00
2019-02-25T03:34:52.528Z,1.99
2019-02-25T03:37:40.655Z,1.92
2019-02-25T03:40:28.514Z,2.06
2019-02-25T03:43:16.763Z,1.96
2019-02-25T03:46:05.007Z,1.92
2019-02-25T03:48:52.974Z,1.97
2019-02-25T03:51:40.483Z,1.96
2019-02-25T03:54:28.345Z,1.88
2019-02-25T03:57:16.260Z,1.79
2019-02-25T04:00:04.318Z,2.03
2019-02-25T04:02:52.373Z,1.93
2019-02-25T04:05:40.383Z,1.70
2019-02-25T04:08:28.676Z,1.83
2019-02-25T04:11:16.594Z,1.80
2019-02-25T04:14:04.890Z,1.63
2019-02-25T04:16:52.730Z,1.63
2019-02-25T04:19:40.951Z,1.75
2019-02-25T04:22:28.696Z,1.62
2019-02-25T04:25:16.278Z,1.58
2019-02-25T04:28:04.308Z,1.64
2019-02-25T04:30:52.245Z,1.88
2019-02-25T04:33:40.077Z,1.65
2019-02-25T04:36:27.594Z,1.66
2019-02-25T04:39:15.199Z,1.82
2019-02-25T04:42:02.978Z,1.75
2019-02-25T04:44:51.365Z,1.81
2019-02-25T04:47:38.914Z,1.64
2019-02-25T04:50:27.269Z,1.69
2019-02-25T04:53:15.731Z,1.67
2019-02-25T04:56:03.599Z,1.78
2019-02-25T04:58:51.809Z,1.62
2019-02-25T05:01:39.796Z,1.46
2019-02-25T05:04:28.025Z,1.45
2019-02-25T05:07:16.017Z,1.44
2019-02-25T05:10:04.332Z,1.85
2019-02-25T05:13:00.216Z,1.91
2019-02-25T05:15:48.286Z,1.53
2019-02-25T05:18:36.255Z,1.70
2019-02-25T05:21:24.744Z,1.61
2019-02-25T05:24:12.432Z,1.78
2019-02-25T05:27:00.640Z,1.74
2019-02-25T05:29:48.491Z,1.85
2019-02-25T05:32:36.433Z,1.79
2019-02-25T05:35:24.069Z,1.74
2019-02-25T05:38:12.215Z,1.41
2019-02-25T05:41:00.161Z,1.60
2019-02-25T05:43:48.227Z,1.63
2019-02-25T05:46:36.262Z,1.77
2019-02-25T05:49:24.353Z,1.60
2019-02-25T05:52:12.608Z,1.45
2019-02-25T05:55:00.954Z,1.40
2019-02-25T05:57:49.083Z,1.62
2019-02-25T06:00:36.982Z,1.78
2019-02-25T06:03:25.207Z,1.55
2019-02-25T06:06:13.190Z,1.63
2019-02-25T06:09:01.079Z,1.72
2019-02-25T06:11:49.118Z,1.57
2019-02-25T06:14:37.025Z,1.78
2019-02-25T06:17:24.959Z,1.73
2019-02-25T06:20:13.441Z,1.48
2019-02-25T06:23:01.311Z,1.68
2019-02-25T06:25:49.448Z,1.80
2019-02-25T06:28:37.354Z,1.91
2019-02-25T06:31:24.880Z,1.94
2019-02-25T06:34:13.081Z,1.76
2019-02-25T06:37:01.242Z,1.76
2019-02-25T06:39:49.081Z,1.73
2019-02-25T06:42:37.385Z,1.75
2019-02-25T06:45:25.513Z,1.74
2019-02-25T06:48:13.818Z,1.95
2019-02-25T06:51:01.721Z,2.24
2019-02-25T06:53:49.892Z,2.83
2019-02-25T06:56:37.635Z,3.80
2019-02-25T06:59:25.491Z,4.33
2019-02-25T07:02:13.396Z,5.06
2019-02-25T07:05:26.539Z,5.48
2019-02-25T07:08:29.559Z,5.14
2019-02-25T07:11:23.858Z,4.57
2019-02-25T07:14:37.001Z,4.00
2019-02-25T07:17:44.151Z,3.81
2019-02-25T07:20:50.077Z,3.46
2019-02-25T07:24:06.203Z,3.55
2019-02-25T07:27:12.832Z,3.76
2019-02-25T07:30:13.180Z,4.62
2019-02-25T07:33:14.100Z,6.15
2019-02-25T07:36:36.398Z,7.26
2019-02-25T07:39:55.445Z,7.80
2019-02-25T07:42:55.718Z,8.45
2019-02-25T07:46:17.953Z,8.87
2019-02-25T07:49:28.059Z,9.39
2019-02-25T07:52:33.811Z,9.51
2019-02-25T07:55:27.005Z,9.31
2019-02-25T07:58:36.965Z,9.32
2019-02-25T08:01:42.606Z,9.41
2019-02-25T08:04:49.573Z,9.71
2019-02-25T08:08:05.986Z,9.30
2019-02-25T08:11:27.948Z,9.06
2019-02-25T08:14:22.786Z,9.25
2019-02-25T08:17:42.250Z,9.05
2019-02-25T08:20:39.986Z,9.40
2019-02-25T08:23:46.274Z,9.14
2019-02-25T08:26:48.943Z,9.11
2019-02-25T08:29:53.791Z,9.18
2019-02-25T08:33:09.865Z,8.98
2019-02-25T08:37:12.664Z,9.27
2019-02-25T08:40:50.042Z,9.12
2019-02-25T08:43:57.034Z,8.75
2019-02-25T08:46:56.450Z,8.99
2019-02-25T08:49:56.732Z,8.74
2019-02-25T08:52:44.941Z,8.76
2019-02-25T08:55:32.957Z,8.71
2019-02-25T08:58:21.186Z,8.20
2019-02-25T09:01:10.195Z,8.52
2019-02-25T09:03:57.949Z,8.59
2019-02-25T09:06:45.851Z,8.78
2019-02-25T09:09:34.209Z,7.91
2019-02-25T09:12:22.163Z,7.96
2019-02-25T09:15:11.253Z,7.97
2019-02-25T09:17:57.763Z,8.05
2019-02-25T09:20:45.689Z,7.90
2019-02-25T09:23:33.786Z,7.84
2019-02-25T09:26:21.832Z,7.40
2019-02-25T09:29:09.790Z,6.94
2019-02-25T09:31:57.749Z,6.84
2019-02-25T09:34:47.084Z,6.94
2019-02-25T09:37:37.225Z,7.08
2019-02-25T09:40:24.656Z,7.28
2019-02-25T09:43:12.884Z,7.25
2019-02-25T09:46:00.673Z,7.26
2019-02-25T09:48:48.400Z,7.32
2019-02-25T09:51:36.237Z,7.41
2019-02-25T09:54:24.439Z,7.27
2019-02-25T09:57:12.626Z,7.39
2019-02-25T10:00:00.858Z,7.55
2019-02-25T10:02:48.827Z,7.70
2019-02-25T10:05:37.618Z,7.64
2019-02-25T10:08:25.501Z,7.82
2019-02-25T10:11:13.680Z,7.82
2019-02-25T10:14:01.884Z,8.03
2019-02-25T10:16:50.196Z,8.25
2019-02-25T10:19:38.263Z,8.33
2019-02-25T10:22:26.612Z,8.45
2019-02-25T10:25:14.645Z,8.39
2019-02-25T10:28:02.931Z,8.47
2019-02-25T10:30:53.072Z,8.68
2019-02-25T10:33:40.996Z,8.78
2019-02-25T10:36:29.295Z,8.86
2019-02-25T10:39:17.913Z,9.01
2019-02-25T10:42:06.386Z,9.03
2019-02-25T10:44:54.238Z,8.94
2019-02-25T10:47:43.859Z,9.17
2019-02-25T10:50:33.463Z,9.25
2019-02-25T10:53:22.115Z,9.28
2019-02-25T10:56:39.231Z,9.50
2019-02-25T10:59:29.753Z,9.82
2019-02-25T11:02:17.951Z,10.07
2019-02-25T11:05:07.081Z,10.16
2019-02-25T11:07:55.282Z,10.23
2019-02-25T11:10:48.673Z,10.17
2019-02-25T11:13:37.255Z,10.35
2019-02-25T11:16:24.912Z,10.42
2019-02-25T11:19:13.087Z,10.45
2019-02-25T11:22:00.645Z,10.51
2019-02-25T11:24:49.848Z,10.50
2019-02-25T11:27:40.035Z,10.49
2019-02-25T11:30:28.251Z,10.67
2019-02-25T11:33:16.718Z,10.64
2019-02-25T11:36:04.379Z,10.46
2019-02-25T11:38:52.472Z,10.40
2019-02-25T11:41:41.089Z,10.13
2019-02-25T11:44:31.285Z,10.13
2019-02-25T11:47:19.304Z,10.18
2019-02-25T11:50:09.270Z,10.34
2019-02-25T11:52:56.824Z,10.43
2019-02-25T11:55:44.804Z,10.43
2019-02-25T11:58:32.717Z,10.42
2019-02-25T12:01:20.619Z,10.69
2019-02-25T12:04:08.722Z,10.80
2019-02-25T12:06:56.861Z,10.45
2019-02-25T12:09:44.883Z,10.61
2019-02-25T12:12:32.826Z,10.68
2019-02-25T12:15:21.116Z,10.46
2019-02-25T12:18:09.024Z,10.53
2019-02-25T12:20:57.202Z,10.43
2019-02-25T12:23:45.598Z,10.56
2019-02-25T12:26:33.816Z,10.80
2019-02-25T12:29:22.026Z,11.03
2019-02-25T12:32:09.909Z,11.20
2019-02-25T12:34:57.901Z,11.10
2019-02-25T12:37:45.763Z,11.23
2019-02-25T12:40:33.796Z,11.41
2019-02-25T12:43:21.761Z,11.45
2019-02-25T12:46:09.756Z,11.60
2019-02-25T12:48:57.390Z,11.76
2019-02-25T12:51:45.250Z,11.75
2019-02-25T12:54:33.624Z,11.78
2019-02-25T12:57:21.638Z,12.02
2019-02-25T13:00:12.203Z,12.23
2019-02-25T13:03:00.513Z,12.37
2019-02-25T13:05:48.446Z,12.18
2019-02-25T13:08:36.263Z,12.24
2019-02-25T13:11:24.692Z,12.23
2019-02-25T13:14:13.849Z,12.16
2019-02-25T13:17:01.971Z,12.14
2019-02-25T13:19:49.774Z,12.19
2019-02-25T13:22:38.155Z,12.36
2019-02-25T13:25:26.010Z,12.48
2019-02-25T13:28:14.179Z,12.57
2019-02-25T13:31:03.252Z,12.67
2019-02-25T13:33:52.304Z,12.53
2019-02-25T13:36:40.445Z,12.78
2019-02-25T13:39:27.934Z,12.95
2019-02-25T13:42:15.504Z,13.07
2019-02-25T13:45:03.371Z,13.20
2019-02-25T13:47:51.578Z,13.16
2019-02-25T13:50:39.895Z,13.24
2019-02-25T13:53:28.069Z,13.41
2019-02-25T13:56:16.113Z,13.55
2019-02-25T13:59:04.405Z,13.47
2019-02-25T14:01:52.644Z,13.47
2019-02-25T14:04:40.776Z,13.41
2019-02-25T14:07:28.375Z,13.26
2019-02-25T14:10:16.530Z,13.42
2019-02-25T14:13:04.404Z,13.46
2019-02-25T14:15:52.906Z,13.32
2019-02-25T14:18:41.057Z,13.38
2019-02-25T14:21:31.573Z,13.57
2019-02-25T14:24:20.792Z,13.67
2019-02-25T14:27:08.558Z,13.75
2019-02-25T14:29:56.931Z,13.83
2019-02-25T14:32:45.278Z,13.80
2019-02-25T14:35:33.374Z,13.81
2019-02-25T14:38:23.208Z,13.67
2019-02-25T14:41:11.681Z,13.66
2019-02-25T14:44:00.310Z,13.78
2019-02-25T14:46:47.966Z,13.89
2019-02-25T14:49:37.770Z,13.89
2019-02-25T14:52:26.842Z,13.89
2019-02-25T14:55:15.878Z,13.89
2019-02-25T14:58:06.865Z,13.82
2019-02-25T15:00:53.814Z,13.88
2019-02-25T15:03:41.899Z,13.91
2019-02-25T15:06:30.430Z,14.04
2019-02-25T15:09:19.254Z,13.91
2019-02-25T15:12:09.210Z,13.98
2019-02-25T15:14:58.045Z,13.83
2019-02-25T15:17:48.064Z,13.81
2019-02-25T15:20:36.002Z,13.78
2019-02-25T15:23:25.959Z,13.61
2019-02-25T15:26:15.102Z,13.57
2019-02-25T15:29:03.244Z,13.67
2019-02-25T15:31:52.601Z,13.64
2019-02-25T15:34:41.373Z,13.61
2019-02-25T15:37:29.585Z,13.64
2019-02-25T15:40:18.576Z,13.66
2019-02-25T15:43:13.166Z,13.56
2019-02-25T15:46:02.247Z,13.60
2019-02-25T15:48:50.629Z,13.47
2019-02-25T15:51:39.101Z,13.43
2019-02-25T15:54:30.888Z,13.19
2019-02-25T15:57:17.865Z,13.26
2019-02-25T16:00:08.796Z,13.27
2019-02-25T16:02:57.310Z,13.23
2019-02-25T16:05:45.541Z,13.01
2019-02-25T16:08:33.504Z,12.87
2019-02-25T16:11:25.643Z,12.92
2019-02-25T16:14:11.957Z,12.71
2019-02-25T16:17:00.036Z,12.42
2019-02-25T16:19:50.659Z,12.18
2019-02-25T16:22:39.085Z,11.89
2019-02-25T16:25:28.140Z,11.90
2019-02-25T16:28:17.563Z,11.83
2019-02-25T16:31:06.079Z,11.70
2019-02-25T16:33:55.495Z,11.58
2019-02-25T16:36:48.996Z,11.28
2019-02-25T16:39:34.150Z,11.10
2019-02-25T16:42:25.965Z,11.05
2019-02-25T16:45:14.229Z,10.82
2019-02-25T16:48:02.317Z,10.69
2019-02-25T16:50:50.227Z,10.55
2019-02-25T16:53:39.026Z,10.59
2019-02-25T16:56:27.781Z,10.25
2019-02-25T16:59:17.944Z,10.12
2019-02-25T17:02:07.112Z,10.09
2019-02-25T17:04:54.905Z,9.90
2019-02-25T17:07:46.519Z,9.90
2019-02-25T17:10:35.048Z,9.86
2019-02-25T17:13:23.378Z,9.85
2019-02-25T17:16:18.165Z,9.79
2019-02-25T17:19:01.267Z,9.65
2019-02-25T17:21:49.346Z,9.66
2019-02-25T17:24:39.227Z,9.62
2019-02-25T17:27:28.159Z,9.50
2019-02-25T17:30:20.174Z,9.51
2019-02-25T17:33:12.119Z,9.50
2019-02-25T17:35:59.620Z,9.50
2019-02-25T17:38:49.661Z,9.50
2019-02-25T17:41:37.780Z,9.51
2019-02-25T17:44:28.353Z,9.47
2019-02-25T17:47:24.028Z,9.44
2019-02-25T17:50:09.451Z,9.39
2019-02-25T17:52:58.645Z,9.44
2019-02-25T17:55:48.911Z,9.35
2019-02-25T17:58:38.245Z,9.28
2019-02-25T18:01:27.984Z,9.23
2019-02-25T18:04:16.283Z,9.29
2019-02-25T18:07:04.194Z,9.28
2019-02-25T18:09:52.163Z,9.28
2019-02-25T18:12:41.531Z,9.21
2019-02-25T18:15:30.631Z,9.13
2019-02-25T18:18:20.270Z,9.10
2019-02-25T18:21:09.044Z,9.06
2019-02-25T18:23:57.060Z,8.96
2019-02-25T18:26:47.036Z,8.86
2019-02-25T18:29:34.752Z,8.69
2019-02-25T18:32:22.770Z,8.71
2019-02-25T18:35:12.239Z,8.81
2019-02-25T18:38:02.488Z,8.75
2019-02-25T18:40:50.317Z,8.62
2019-02-25T18:43:38.487Z,8.58
2019-02-25T18:46:27.706Z,8.56
2019-02-25T18:49:16.559Z,8.62
2019-02-25T18:52:04.421Z,8.36
2019-02-25T18:54:52.551Z,8.33
2019-02-25T18:57:41.724Z,8.22
2019-02-25T19:00:34.302Z,8.25
2019-02-25T19:03:22.371Z,8.13
2019-02-25T19:06:10.359Z,8.07
2019-02-25T19:09:01.264Z,7.88
2019-02-25T19:11:51.076Z,7.92
2019-02-25T19:14:38.681Z,7.93
2019-02-25T19:17:27.281Z,7.87
2019-02-25T19:20:17.251Z,7.89
2019-02-25T19:23:09.353Z,7.87
2019-02-25T19:25:54.856Z,7.84
2019-02-25T19:28:45.976Z,7.95
2019-02-25T19:31:32.645Z,7.79
2019-02-25T19:34:20.716Z,7.68
2019-02-25T19:37:09.669Z,7.76
2019-02-25T19:39:58.300Z,7.85
2019-02-25T19:42:49.261Z,7.58
2019-02-25T19:45:36.391Z,7.91
2019-02-25T19:48:28.680Z,7.99
2019-02-25T19:51:14.852Z,7.82
2019-02-25T19:54:06.728Z,7.61
2019-02-25T19:56:53.752Z,7.42
2019-02-25T19:59:43.397Z,7.32
2019-02-25T20:02:32.180Z,7.42
2019-02-25T20:05:23.902Z,7.41
2019-02-25T20:08:11.411Z,7.79
2019-02-25T20:10:59.494Z,7.84
2019-02-25T20:13:47.738Z,7.70
2019-02-25T20:16:35.715Z,7.60
2019-02-25T20:19:23.350Z,7.50
2019-02-25T20:22:12.113Z,7.41
2019-02-25T20:25:01.355Z,7.25
2019-02-25T20:27:50.831Z,7.35
2019-02-25T20:30:39.275Z,7.53
2019-02-25T20:33:31.756Z,7.38
2019-02-25T20:36:19.234Z,7.50
2019-02-25T20:39:07.001Z,7.54
2019-02-25T20:41:57.026Z,7.53
2019-02-25T20:44:46.699Z,7.45
2019-02-25T20:47:34.214Z,7.52
2019-02-25T20:50:22.316Z,7.58
2019-02-25T20:53:11.075Z,7.39
2019-02-25T20:55:59.247Z,7.20
2019-02-25T20:58:47.438Z,7.29
2019-02-25T21:01:37.456Z,7.25
2019-02-25T21:04:24.508Z,7.08
2019-02-25T21:07:13.256Z,7.22
2019-02-25T21:10:03.527Z,7.45
2019-02-25T21:12:52.998Z,7.48
2019-02-25T21:15:42.839Z,7.53
2019-02-25T21:18:31.040Z,7.43
2019-02-25T21:21:19.129Z,7.43
2019-02-25T21:24:08.909Z,7.26
2019-02-25T21:26:59.618Z,7.43
2019-02-25T21:29:48.239Z,7.15
2019-02-25T21:32:36.009Z,7.10
2019-02-25T21:35:27.578Z,6.95
2019-02-25T21:38:13.206Z,6.67
2019-02-25T21:41:01.326Z,6.49
2019-02-25T21:43:51.628Z,6.38
2019-02-25T21:46:39.151Z,6.65
2019-02-25T21:49:29.220Z,6.77
2019-02-25T21:52:17.602Z,6.64
2019-02-25T21:55:07.563Z,6.76
2019-02-25T21:57:57.380Z,6.79
2019-02-25T22:00:45.509Z,6.56
2019-02-25T22:03:37.126Z,6.81
2019-02-25T22:06:24.923Z,6.73
2019-02-25T22:09:12.348Z,6.91
2019-02-25T22:12:00.794Z,6.87
2019-02-25T22:14:49.914Z,6.95
2019-02-25T22:17:40.497Z,6.95
2019-02-25T22:20:28.310Z,6.81
2019-02-25T22:23:16.515Z,6.88
2019-02-25T22:26:04.413Z,6.92
2019-02-25T22:28:53.299Z,6.95
2019-02-25T22:31:44.101Z,7.29
2019-02-25T22:34:31.450Z,7.19
2019-02-25T22:37:21.837Z,6.99
2019-02-25T22:40:10.633Z,7.04
2019-02-25T22:42:59.614Z,7.15
2019-02-25T22:45:47.798Z,7.34
2019-02-25T22:48:37.571Z,7.31
2019-02-25T22:51:28.166Z,7.07
2019-02-25T22:54:17.101Z,7.09
2019-02-25T22:57:05.414Z,7.17
2019-02-25T22:59:53.294Z,7.25
2019-02-25T23:02:43.469Z,6.80
2019-02-25T23:05:31.362Z,6.61
2019-02-25T23:08:20.909Z,6.79
2019-02-25T23:11:10.317Z,6.71
2019-02-25T23:13:59.052Z,6.66
2019-02-25T23:16:47.929Z,6.67
2019-02-25T23:19:37.097Z,6.33
2019-02-25T23:22:25.192Z,6.42
2019-02-25T23:25:13.159Z,6.29
2019-02-25T23:28:02.297Z,6.43
2019-02-25T23:30:50.344Z,6.24
2019-02-25T23:33:40.460Z,6.35
2019-02-25T23:36:27.822Z,6.13
2019-02-25T23:39:17.665Z,6.40
2019-02-25T23:42:07.323Z,6.12
2019-02-25T23:44:55.505Z,6.31
2019-02-25T23:47:43.300Z,6.32
2019-02-25T23:50:31.879Z,6.49
2019-02-25T23:53:20.731Z,6.34
2019-02-25T23:56:08.944Z,6.52
2019-02-25T23:58:56.868Z,6.22
